Etusivu
METAR-TAF:

METAR-TAF

Lentoasemat :

Brooks Field

Marshall, Michigan, Yhdysvallat

Leveyspiiri: 42-15-04N, Pituuspiiri: 084-57-20W, korkeus merenpinnasta: 287 m

Tämänhetkinen sää

Tämä raportti tehtiin 45 minuuttia sitten, kello 04.57 UTC
Tuuli 8 kn kaakosta
Lämpötila 17°C
Kosteus 82%
Ilmanpaine 1015 hPa
Näkyvyys: 16.1 km
Hajanaisia pilviä 4300 ft:n korkeudessa

METAR: KRMY 250457Z AUTO 14008KT 10SM SCT043 17/14 A2998 RMK AO2

Aika: 01:42 (05:42 UTC)


TAF: puuttuu

Säähavainnot ja -ennusteet yli 4000 lentoasemalta (METAR- ja TAF-raportit).

Käytössä olevat sääasemat on merkitty karttaan keltaisilla ja punaisilla pisteillä.

Aseta hiiri pisteen päälle nähdäksesi sääaseman nimen.

Klikkaa sitten nähdäksesi säähavainnot ja -ennusteet.

Kartan vaihtaminen: klikkaa mustalla rastilla varustettuja vihreitä pisteitä, niin voit zoomata sisään; viivalla varustettua vihreää pistettä, niin voit zoomata ulos tai vihreitä nuolia, niin pääset viereisille kartoille.


METAR-TAF: